createdAt,value
2023-03-23T15:59:27.987Z,99486.97
2023-03-23T16:04:30.892Z,99502.34
2023-03-23T16:09:35.135Z,99496.72
2023-03-23T16:14:38.060Z,99497.41
2023-03-23T16:19:41.043Z,99473.72
2023-03-23T16:24:46.063Z,99484.59
2023-03-23T16:30:02.953Z,99499.50
2023-03-23T16:35:08.400Z,99496.84
2023-03-23T16:40:13.504Z,99502.66
2023-03-23T16:45:16.401Z,99525.13
2023-03-23T16:50:19.624Z,99536.25
2023-03-23T16:55:26.051Z,99525.78
2023-03-23T17:00:28.930Z,99516.63
2023-03-23T17:05:31.765Z,99515.38
2023-03-23T17:10:36.802Z,99533.72
2023-03-23T17:15:39.742Z,99523.28
2023-03-23T17:20:42.564Z,99524.56
2023-03-23T17:25:47.315Z,99509.03
2023-03-23T17:30:50.339Z,99499.00
2023-03-23T17:35:53.976Z,99507.47
2023-03-23T17:40:58.982Z,99510.84
2023-03-23T17:46:01.812Z,99520.72
2023-03-23T17:51:04.896Z,99510.56
2023-03-23T17:56:09.851Z,99519.63
2023-03-23T18:01:12.836Z,99517.25
2023-03-23T18:06:15.758Z,99519.34
2023-03-23T18:11:20.147Z,99525.88
2023-03-23T18:16:23.032Z,99519.34
2023-03-23T18:21:27.025Z,99526.56
2023-03-23T18:26:31.402Z,99524.56
2023-03-23T18:31:39.708Z,99529.44
2023-03-23T18:36:42.760Z,99522.91
2023-03-23T18:41:46.939Z,99525.34
2023-03-23T18:46:49.833Z,99536.78
2023-03-23T18:51:52.663Z,99525.03
2023-03-23T18:57:00.441Z,99538.03
2023-03-23T19:02:03.936Z,99521.66
2023-03-23T19:07:07.502Z,99529.41
2023-03-23T19:12:12.469Z,99536.31
2023-03-23T19:17:15.442Z,99534.63
2023-03-23T19:22:18.261Z,99539.75
2023-03-23T19:27:22.479Z,99533.38
2023-03-23T19:32:25.326Z,99543.97
2023-03-23T19:37:28.250Z,99545.13
2023-03-23T19:42:32.636Z,99546.81
2023-03-23T19:47:35.705Z,99544.38
2023-03-23T19:52:38.488Z,99538.44
2023-03-23T19:57:43.521Z,99541.00
2023-03-23T20:02:46.420Z,99540.00
2023-03-23T20:07:51.905Z,99527.56
2023-03-23T20:12:56.465Z,99535.63
2023-03-23T20:17:59.427Z,99535.31
2023-03-23T20:23:02.558Z,99533.06
2023-03-23T20:28:07.297Z,99534.06
2023-03-23T20:33:10.656Z,99536.75
2023-03-23T20:38:13.476Z,99538.44
2023-03-23T20:43:17.656Z,99543.81
2023-03-23T20:48:20.398Z,99542.13
2023-03-23T20:53:23.340Z,99523.72
2023-03-23T21:03:31.635Z,99525.41
2023-03-23T21:08:36.042Z,99527.22
2023-03-23T21:13:40.244Z,99528.63
2023-03-23T21:18:42.981Z,99512.66
2023-03-23T21:23:51.995Z,99510.00
2023-03-23T21:28:59.647Z,99515.94
2023-03-23T21:34:02.611Z,99516.22
2023-03-23T21:39:06.114Z,99512.69
2023-03-23T21:44:10.987Z,99497.97
2023-03-23T21:49:14.976Z,99501.81
2023-03-23T21:54:17.723Z,99488.53
2023-03-23T21:59:22.995Z,99492.34
2023-03-23T22:04:26.092Z,99491.63
2023-03-23T22:09:30.238Z,99477.50
2023-03-23T22:14:34.562Z,99469.44
2023-03-23T22:19:37.425Z,99467.91
2023-03-23T22:24:40.494Z,99460.97
2023-03-23T22:29:44.721Z,99462.81
2023-03-23T22:34:49.103Z,99453.22
2023-03-23T22:39:52.258Z,99446.97
2023-03-23T22:44:56.475Z,99434.69
2023-03-23T22:49:59.413Z,99428.63
2023-03-23T22:55:02.337Z,99434.84
2023-03-23T23:00:14.448Z,99425.09
2023-03-23T23:05:17.808Z,99418.31
2023-03-23T23:10:20.782Z,99422.00
2023-03-23T23:15:25.199Z,99412.53
2023-03-23T23:20:28.107Z,99403.75
2023-03-23T23:25:30.987Z,99409.28
2023-03-23T23:30:35.529Z,99388.78
2023-03-23T23:35:38.641Z,99406.03
2023-03-23T23:40:42.800Z,99403.63
2023-03-23T23:45:47.212Z,99388.50
2023-03-23T23:50:51.124Z,99384.41
2023-03-23T23:55:54.061Z,99380.19
